sensor_id;sensor_type;location;lat;lon;timestamp;pressure;altitude;pressure_sealevel;temperature;humidity
20019;BME280;10170;42.502;26.526;2023-03-18T00:00:14;100318.06;;;6.25;100.00
20019;BME280;10170;42.502;26.526;2023-03-18T00:02:44;100306.97;;;6.13;100.00
20019;BME280;10170;42.502;26.526;2023-03-18T00:05:11;100308.63;;;6.22;100.00
20019;BME280;10170;42.502;26.526;2023-03-18T00:07:39;100277.09;;;6.05;100.00
20019;BME280;10170;42.502;26.526;2023-03-18T00:10:07;100315.38;;;6.17;100.00
20019;BME280;10170;42.502;26.526;2023-03-18T00:12:36;100309.00;;;6.35;100.00
20019;BME280;10170;42.502;26.526;2023-03-18T00:15:06;100308.38;;;6.42;100.00
20019;BME280;10170;42.502;26.526;2023-03-18T00:17:33;100313.44;;;6.27;100.00
20019;BME280;10170;42.502;26.526;2023-03-18T00:20:00;100301.41;;;6.40;100.00
20019;BME280;10170;42.502;26.526;2023-03-18T00:22:36;100306.88;;;6.39;100.00
20019;BME280;10170;42.502;26.526;2023-03-18T00:25:05;100311.31;;;6.38;100.00
20019;BME280;10170;42.502;26.526;2023-03-18T00:27:33;100281.28;;;6.23;100.00
20019;BME280;10170;42.502;26.526;2023-03-18T00:30:00;100306.03;;;6.38;100.00
20019;BME280;10170;42.502;26.526;2023-03-18T00:32:29;100303.56;;;6.53;100.00
20019;BME280;10170;42.502;26.526;2023-03-18T00:34:56;100304.75;;;6.51;100.00
20019;BME280;10170;42.502;26.526;2023-03-18T00:37:24;100298.09;;;6.38;100.00
20019;BME280;10170;42.502;26.526;2023-03-18T00:40:03;100294.31;;;6.49;100.00
20019;BME280;10170;42.502;26.526;2023-03-18T00:42:33;100301.44;;;6.57;100.00
20019;BME280;10170;42.502;26.526;2023-03-18T00:45:07;100295.00;;;6.43;100.00
20019;BME280;10170;42.502;26.526;2023-03-18T00:47:34;100290.47;;;6.03;100.00
20019;BME280;10170;42.502;26.526;2023-03-18T00:50:01;100295.13;;;6.33;100.00
20019;BME280;10170;42.502;26.526;2023-03-18T00:52:28;100276.97;;;6.38;100.00
20019;BME280;10170;42.502;26.526;2023-03-18T00:54:58;100278.94;;;6.20;100.00
20019;BME280;10170;42.502;26.526;2023-03-18T00:57:26;100281.56;;;6.20;100.00
20019;BME280;10170;42.502;26.526;2023-03-18T00:59:54;100287.69;;;6.13;100.00
20019;BME280;10170;42.502;26.526;2023-03-18T01:02:21;100280.81;;;5.86;100.00
20019;BME280;10170;42.502;26.526;2023-03-18T01:04:49;100297.09;;;6.23;100.00
20019;BME280;10170;42.502;26.526;2023-03-18T01:07:16;100288.81;;;6.10;100.00
20019;BME280;10170;42.502;26.526;2023-03-18T01:09:43;100276.25;;;6.04;100.00
20019;BME280;10170;42.502;26.526;2023-03-18T01:12:11;100275.69;;;6.34;100.00
20019;BME280;10170;42.502;26.526;2023-03-18T01:14:38;100286.06;;;6.20;96.55
20019;BME280;10170;42.502;26.526;2023-03-18T01:17:07;100272.16;;;6.10;99.06
20019;BME280;10170;42.502;26.526;2023-03-18T01:19:34;100268.69;;;6.17;99.72
20019;BME280;10170;42.502;26.526;2023-03-18T01:22:29;100258.16;;;6.09;100.00
20019;BME280;10170;42.502;26.526;2023-03-18T01:24:55;100265.59;;;6.22;100.00
20019;BME280;10170;42.502;26.526;2023-03-18T01:27:23;100263.09;;;6.20;100.00
20019;BME280;10170;42.502;26.526;2023-03-18T01:29:50;100264.38;;;6.00;100.00
20019;BME280;10170;42.502;26.526;2023-03-18T01:32:17;100253.50;;;6.11;100.00
20019;BME280;10170;42.502;26.526;2023-03-18T01:34:43;100251.50;;;5.97;95.98
20019;BME280;10170;42.502;26.526;2023-03-18T01:37:10;100250.69;;;5.97;95.59
20019;BME280;10170;42.502;26.526;2023-03-18T01:39:37;100255.38;;;5.77;95.78
20019;BME280;10170;42.502;26.526;2023-03-18T01:42:04;100250.81;;;5.87;96.73
20019;BME280;10170;42.502;26.526;2023-03-18T01:44:31;100253.81;;;5.92;100.00
20019;BME280;10170;42.502;26.526;2023-03-18T01:46:58;100263.56;;;6.00;100.00
20019;BME280;10170;42.502;26.526;2023-03-18T01:51:58;100265.38;;;5.99;100.00
20019;BME280;10170;42.502;26.526;2023-03-18T01:54:27;100259.72;;;5.86;100.00
20019;BME280;10170;42.502;26.526;2023-03-18T01:56:55;100265.72;;;5.63;100.00
20019;BME280;10170;42.502;26.526;2023-03-18T01:59:26;100262.06;;;5.56;100.00
20019;BME280;10170;42.502;26.526;2023-03-18T02:01:58;100270.75;;;5.48;98.59
20019;BME280;10170;42.502;26.526;2023-03-18T02:04:31;100251.47;;;5.14;99.24
20019;BME280;10170;42.502;26.526;2023-03-18T02:07:00;100258.13;;;5.26;99.51
20019;BME280;10170;42.502;26.526;2023-03-18T02:09:27;100248.78;;;5.06;96.93
20019;BME280;10170;42.502;26.526;2023-03-18T02:11:55;100264.31;;;5.17;95.46
20019;BME280;10170;42.502;26.526;2023-03-18T02:14:24;100262.00;;;5.14;96.15
20019;BME280;10170;42.502;26.526;2023-03-18T02:17:14;100260.72;;;5.18;94.55
20019;BME280;10170;42.502;26.526;2023-03-18T02:20:17;100265.59;;;5.05;95.96
20019;BME280;10170;42.502;26.526;2023-03-18T02:22:49;100258.44;;;5.23;92.05
20019;BME280;10170;42.502;26.526;2023-03-18T02:27:53;100265.47;;;4.89;95.99
20019;BME280;10170;42.502;26.526;2023-03-18T02:30:27;100266.44;;;5.13;95.46
20019;BME280;10170;42.502;26.526;2023-03-18T02:32:58;100266.00;;;5.18;100.00
20019;BME280;10170;42.502;26.526;2023-03-18T02:35:26;100266.31;;;4.89;100.00
20019;BME280;10170;42.502;26.526;2023-03-18T02:37:54;100269.34;;;4.59;100.00
20019;BME280;10170;42.502;26.526;2023-03-18T02:40:31;100270.38;;;4.41;100.00
20019;BME280;10170;42.502;26.526;2023-03-18T02:43:24;100256.72;;;4.45;100.00
20019;BME280;10170;42.502;26.526;2023-03-18T02:46:03;100274.78;;;4.58;100.00
20019;BME280;10170;42.502;26.526;2023-03-18T02:48:38;100275.31;;;4.26;100.00
20019;BME280;10170;42.502;26.526;2023-03-18T02:51:06;100275.16;;;4.10;100.00
20019;BME280;10170;42.502;26.526;2023-03-18T02:53:35;100274.19;;;4.11;100.00
20019;BME280;10170;42.502;26.526;2023-03-18T02:56:02;100276.44;;;4.06;100.00
20019;BME280;10170;42.502;26.526;2023-03-18T02:58:30;100255.72;;;3.76;100.00
20019;BME280;10170;42.502;26.526;2023-03-18T03:00:57;100278.94;;;3.80;100.00
20019;BME280;10170;42.502;26.526;2023-03-18T03:03:24;100285.13;;;3.89;100.00
20019;BME280;10170;42.502;26.526;2023-03-18T03:05:52;100259.25;;;3.84;100.00
20019;BME280;10170;42.502;26.526;2023-03-18T03:08:19;100275.00;;;3.94;100.00
20019;BME280;10170;42.502;26.526;2023-03-18T03:10:46;100279.09;;;3.79;100.00
20019;BME280;10170;42.502;26.526;2023-03-18T03:13:13;100284.31;;;3.88;100.00
20019;BME280;10170;42.502;26.526;2023-03-18T03:15:39;100280.81;;;4.15;100.00
20019;BME280;10170;42.502;26.526;2023-03-18T03:18:07;100266.28;;;4.28;100.00
20019;BME280;10170;42.502;26.526;2023-03-18T03:20:35;100276.38;;;4.51;100.00
20019;BME280;10170;42.502;26.526;2023-03-18T03:23:05;100276.50;;;4.67;100.00
20019;BME280;10170;42.502;26.526;2023-03-18T03:25:32;100285.00;;;4.61;100.00
20019;BME280;10170;42.502;26.526;2023-03-18T03:27:59;100286.22;;;4.49;100.00
20019;BME280;10170;42.502;26.526;2023-03-18T03:30:26;100289.09;;;4.55;100.00
20019;BME280;10170;42.502;26.526;2023-03-18T03:32:54;100293.72;;;4.61;100.00
20019;BME280;10170;42.502;26.526;2023-03-18T03:35:22;100286.22;;;4.31;100.00
20019;BME280;10170;42.502;26.526;2023-03-18T03:37:49;100288.56;;;4.52;100.00
20019;BME280;10170;42.502;26.526;2023-03-18T03:40:18;100284.06;;;4.26;100.00
20019;BME280;10170;42.502;26.526;2023-03-18T03:42:47;100284.63;;;4.03;100.00
20019;BME280;10170;42.502;26.526;2023-03-18T03:45:16;100287.41;;;4.01;100.00
20019;BME280;10170;42.502;26.526;2023-03-18T03:47:44;100276.75;;;4.03;100.00
20019;BME280;10170;42.502;26.526;2023-03-18T03:50:15;100270.97;;;4.17;100.00
20019;BME280;10170;42.502;26.526;2023-03-18T03:52:43;100279.59;;;4.27;100.00
20019;BME280;10170;42.502;26.526;2023-03-18T03:55:12;100288.84;;;4.31;100.00
20019;BME280;10170;42.502;26.526;2023-03-18T03:57:40;100281.66;;;4.33;100.00
20019;BME280;10170;42.502;26.526;2023-03-18T04:00:11;100281.06;;;4.39;100.00
20019;BME280;10170;42.502;26.526;2023-03-18T04:02:43;100285.84;;;4.61;100.00
20019;BME280;10170;42.502;26.526;2023-03-18T04:05:11;100280.47;;;4.71;100.00
20019;BME280;10170;42.502;26.526;2023-03-18T04:07:39;100281.00;;;4.74;97.89
20019;BME280;10170;42.502;26.526;2023-03-18T04:10:07;100287.41;;;4.54;100.00
20019;BME280;10170;42.502;26.526;2023-03-18T04:12:37;100282.75;;;4.30;100.00
20019;BME280;10170;42.502;26.526;2023-03-18T04:15:05;100286.59;;;4.36;100.00
20019;BME280;10170;42.502;26.526;2023-03-18T04:17:33;100282.97;;;4.19;100.00
20019;BME280;10170;42.502;26.526;2023-03-18T04:20:01;100292.31;;;4.14;100.00
20019;BME280;10170;42.502;26.526;2023-03-18T04:22:28;100285.84;;;4.08;100.00
20019;BME280;10170;42.502;26.526;2023-03-18T04:24:56;100285.25;;;3.87;100.00
20019;BME280;10170;42.502;26.526;2023-03-18T04:27:23;100285.78;;;3.91;100.00
20019;BME280;10170;42.502;26.526;2023-03-18T04:29:50;100282.22;;;3.92;100.00
20019;BME280;10170;42.502;26.526;2023-03-18T04:32:17;100286.53;;;4.10;100.00
20019;BME280;10170;42.502;26.526;2023-03-18T04:34:44;100289.03;;;3.85;100.00
20019;BME280;10170;42.502;26.526;2023-03-18T04:37:11;100284.91;;;4.00;100.00
20019;BME280;10170;42.502;26.526;2023-03-18T04:39:40;100293.13;;;4.14;100.00
20019;BME280;10170;42.502;26.526;2023-03-18T04:42:07;100294.53;;;4.09;100.00
20019;BME280;10170;42.502;26.526;2023-03-18T04:44:33;100291.84;;;4.36;100.00
20019;BME280;10170;42.502;26.526;2023-03-18T04:47:01;100274.19;;;4.46;97.49
20019;BME280;10170;42.502;26.526;2023-03-18T04:49:27;100283.34;;;4.60;93.66
20019;BME280;10170;42.502;26.526;2023-03-18T04:51:54;100286.19;;;4.66;92.35
20019;BME280;10170;42.502;26.526;2023-03-18T04:54:21;100285.69;;;4.63;90.70
20019;BME280;10170;42.502;26.526;2023-03-18T04:56:48;100286.34;;;4.65;91.95
20019;BME280;10170;42.502;26.526;2023-03-18T04:59:15;100290.72;;;4.74;90.68
20019;BME280;10170;42.502;26.526;2023-03-18T05:01:43;100274.38;;;4.70;89.00
20019;BME280;10170;42.502;26.526;2023-03-18T05:04:10;100262.09;;;4.79;86.51
20019;BME280;10170;42.502;26.526;2023-03-18T05:06:37;100285.78;;;4.96;84.15
20019;BME280;10170;42.502;26.526;2023-03-18T05:09:04;100286.44;;;4.98;84.78
20019;BME280;10170;42.502;26.526;2023-03-18T05:11:31;100291.00;;;5.14;84.15
20019;BME280;10170;42.502;26.526;2023-03-18T05:13:58;100295.53;;;5.04;84.18
20019;BME280;10170;42.502;26.526;2023-03-18T05:16:25;100283.25;;;5.12;84.27
20019;BME280;10170;42.502;26.526;2023-03-18T05:18:52;100299.31;;;5.27;83.43
20019;BME280;10170;42.502;26.526;2023-03-18T05:21:18;100305.22;;;5.21;86.32
20019;BME280;10170;42.502;26.526;2023-03-18T05:23:45;100309.75;;;5.36;86.31
20019;BME280;10170;42.502;26.526;2023-03-18T05:26:12;100310.84;;;5.26;88.95
20019;BME280;10170;42.502;26.526;2023-03-18T05:28:39;100308.56;;;5.31;89.72
20019;BME280;10170;42.502;26.526;2023-03-18T05:31:06;100294.41;;;5.32;89.22
20019;BME280;10170;42.502;26.526;2023-03-18T05:33:33;100293.22;;;5.60;88.43
20019;BME280;10170;42.502;26.526;2023-03-18T05:35:59;100308.47;;;5.74;88.75
20019;BME280;10170;42.502;26.526;2023-03-18T05:38:26;100306.28;;;6.03;88.14
20019;BME280;10170;42.502;26.526;2023-03-18T05:40:53;100296.84;;;5.93;89.78
20019;BME280;10170;42.502;26.526;2023-03-18T05:43:21;100307.75;;;6.06;89.58
20019;BME280;10170;42.502;26.526;2023-03-18T05:45:48;100313.91;;;6.22;86.64
20019;BME280;10170;42.502;26.526;2023-03-18T05:48:15;100304.41;;;6.54;84.45
20019;BME280;10170;42.502;26.526;2023-03-18T05:50:43;100311.34;;;6.63;83.20
20019;BME280;10170;42.502;26.526;2023-03-18T05:53:10;100313.50;;;6.67;82.00
20019;BME280;10170;42.502;26.526;2023-03-18T05:55:42;100314.66;;;6.73;80.76
20019;BME280;10170;42.502;26.526;2023-03-18T05:58:09;100320.94;;;6.88;80.29
20019;BME280;10170;42.502;26.526;2023-03-18T06:00:37;100317.78;;;7.08;78.70
20019;BME280;10170;42.502;26.526;2023-03-18T06:03:04;100318.63;;;7.72;75.05
20019;BME280;10170;42.502;26.526;2023-03-18T06:05:31;100321.34;;;7.56;72.43
20019;BME280;10170;42.502;26.526;2023-03-18T06:07:58;100316.69;;;7.49;71.26
20019;BME280;10170;42.502;26.526;2023-03-18T06:10:27;100315.56;;;7.44;71.39
20019;BME280;10170;42.502;26.526;2023-03-18T06:12:54;100300.34;;;7.54;70.91
20019;BME280;10170;42.502;26.526;2023-03-18T06:15:21;100328.91;;;7.59;69.79
20019;BME280;10170;42.502;26.526;2023-03-18T06:17:49;100316.00;;;7.72;70.13
20019;BME280;10170;42.502;26.526;2023-03-18T06:20:16;100320.53;;;7.94;68.77
20019;BME280;10170;42.502;26.526;2023-03-18T06:22:45;100320.06;;;7.82;70.99
20019;BME280;10170;42.502;26.526;2023-03-18T06:25:19;100304.00;;;7.84;71.13
20019;BME280;10170;42.502;26.526;2023-03-18T06:27:47;100319.06;;;7.28;71.80
20019;BME280;10170;42.502;26.526;2023-03-18T06:30:14;100324.06;;;6.99;69.75
20019;BME280;10170;42.502;26.526;2023-03-18T06:32:42;100307.72;;;6.72;70.54
20019;BME280;10170;42.502;26.526;2023-03-18T06:35:10;100326.03;;;6.57;72.53
20019;BME280;10170;42.502;26.526;2023-03-18T06:37:37;100322.53;;;6.40;72.75
20019;BME280;10170;42.502;26.526;2023-03-18T06:40:06;100312.31;;;6.37;73.37
20019;BME280;10170;42.502;26.526;2023-03-18T06:42:33;100330.16;;;6.52;73.95
20019;BME280;10170;42.502;26.526;2023-03-18T06:45:01;100322.25;;;6.60;73.64
20019;BME280;10170;42.502;26.526;2023-03-18T06:47:28;100331.34;;;6.73;73.55
20019;BME280;10170;42.502;26.526;2023-03-18T06:49:55;100305.72;;;6.82;73.41
20019;BME280;10170;42.502;26.526;2023-03-18T06:52:22;100333.63;;;7.08;74.15
20019;BME280;10170;42.502;26.526;2023-03-18T06:54:49;100325.53;;;7.26;72.60
20019;BME280;10170;42.502;26.526;2023-03-18T06:57:17;100332.09;;;7.54;71.64
20019;BME280;10170;42.502;26.526;2023-03-18T06:59:44;100316.16;;;7.70;71.70
20019;BME280;10170;42.502;26.526;2023-03-18T07:02:11;100317.31;;;7.76;67.63
20019;BME280;10170;42.502;26.526;2023-03-18T07:04:38;100329.34;;;7.78;68.16
20019;BME280;10170;42.502;26.526;2023-03-18T07:07:05;100326.91;;;8.07;69.04
20019;BME280;10170;42.502;26.526;2023-03-18T07:09:32;100333.59;;;8.34;64.86
20019;BME280;10170;42.502;26.526;2023-03-18T07:11:59;100322.25;;;8.71;59.43
20019;BME280;10170;42.502;26.526;2023-03-18T07:14:26;100323.91;;;9.09;55.38
20019;BME280;10170;42.502;26.526;2023-03-18T07:16:54;100319.84;;;8.98;52.96
20019;BME280;10170;42.502;26.526;2023-03-18T07:19:21;100322.31;;;8.85;52.30
20019;BME280;10170;42.502;26.526;2023-03-18T07:21:48;100298.63;;;9.21;53.36
20019;BME280;10170;42.502;26.526;2023-03-18T07:24:15;100321.63;;;9.06;51.99
20019;BME280;10170;42.502;26.526;2023-03-18T07:26:42;100301.56;;;8.89;52.85
20019;BME280;10170;42.502;26.526;2023-03-18T07:29:09;100314.81;;;9.26;53.01
20019;BME280;10170;42.502;26.526;2023-03-18T07:31:36;100324.88;;;9.30;52.32
20019;BME280;10170;42.502;26.526;2023-03-18T07:34:03;100319.13;;;9.71;52.65
20019;BME280;10170;42.502;26.526;2023-03-18T07:36:30;100320.50;;;9.81;50.21
20019;BME280;10170;42.502;26.526;2023-03-18T07:38:57;100318.28;;;9.99;50.43
20019;BME280;10170;42.502;26.526;2023-03-18T07:41:25;100319.13;;;10.14;49.24
20019;BME280;10170;42.502;26.526;2023-03-18T07:43:52;100323.63;;;9.70;48.75
20019;BME280;10170;42.502;26.526;2023-03-18T07:46:19;100336.09;;;9.70;49.23
20019;BME280;10170;42.502;26.526;2023-03-18T07:48:46;100316.41;;;9.64;49.67
20019;BME280;10170;42.502;26.526;2023-03-18T07:51:13;100329.38;;;9.88;48.71
20019;BME280;10170;42.502;26.526;2023-03-18T07:53:41;100316.94;;;9.59;48.32
20019;BME280;10170;42.502;26.526;2023-03-18T07:56:08;100322.06;;;9.90;48.75
20019;BME280;10170;42.502;26.526;2023-03-18T07:58:38;100315.75;;;9.77;48.57
20019;BME280;10170;42.502;26.526;2023-03-18T08:01:05;100324.16;;;10.09;48.13
20019;BME280;10170;42.502;26.526;2023-03-18T08:03:31;100305.53;;;11.08;47.88
20019;BME280;10170;42.502;26.526;2023-03-18T08:05:59;100308.66;;;10.91;46.91
20019;BME280;10170;42.502;26.526;2023-03-18T08:08:27;100306.91;;;11.04;49.13
20019;BME280;10170;42.502;26.526;2023-03-18T08:10:58;100296.19;;;11.74;46.72
20019;BME280;10170;42.502;26.526;2023-03-18T08:13:25;100313.91;;;12.01;47.56
20019;BME280;10170;42.502;26.526;2023-03-18T08:15:53;100284.69;;;11.74;46.54
20019;BME280;10170;42.502;26.526;2023-03-18T08:18:22;100303.69;;;11.09;45.96
20019;BME280;10170;42.502;26.526;2023-03-18T08:20:49;100298.66;;;11.82;44.85
20019;BME280;10170;42.502;26.526;2023-03-18T08:23:16;100303.88;;;12.63;48.19
20019;BME280;10170;42.502;26.526;2023-03-18T08:25:46;100305.09;;;12.81;45.76
20019;BME280;10170;42.502;26.526;2023-03-18T08:28:15;100308.06;;;12.19;44.67
20019;BME280;10170;42.502;26.526;2023-03-18T08:30:42;100302.94;;;12.24;44.83
20019;BME280;10170;42.502;26.526;2023-03-18T08:33:09;100294.53;;;11.80;45.37
20019;BME280;10170;42.502;26.526;2023-03-18T08:35:39;100299.38;;;11.97;45.71
20019;BME280;10170;42.502;26.526;2023-03-18T08:38:08;100287.22;;;12.48;46.45
20019;BME280;10170;42.502;26.526;2023-03-18T08:40:35;100300.38;;;12.56;45.34
20019;BME280;10170;42.502;26.526;2023-03-18T08:43:02;100296.09;;;13.01;46.40
20019;BME280;10170;42.502;26.526;2023-03-18T08:45:28;100241.59;;;13.54;47.41
20019;BME280;10170;42.502;26.526;2023-03-18T08:47:55;100289.88;;;14.17;45.75
20019;BME280;10170;42.502;26.526;2023-03-18T08:50:22;100297.50;;;12.84;46.04
20019;BME280;10170;42.502;26.526;2023-03-18T08:52:58;100296.47;;;12.59;46.73
20019;BME280;10170;42.502;26.526;2023-03-18T08:55:30;100303.03;;;12.69;45.63
20019;BME280;10170;42.502;26.526;2023-03-18T08:57:57;100295.09;;;12.09;46.92
20019;BME280;10170;42.502;26.526;2023-03-18T09:00:25;100289.34;;;12.06;45.10
20019;BME280;10170;42.502;26.526;2023-03-18T09:02:53;100277.88;;;12.12;46.49
20019;BME280;10170;42.502;26.526;2023-03-18T09:05:19;100278.75;;;12.25;47.01
20019;BME280;10170;42.502;26.526;2023-03-18T09:07:46;100297.28;;;12.66;46.09
20019;BME280;10170;42.502;26.526;2023-03-18T09:10:14;100285.31;;;12.29;46.30
20019;BME280;10170;42.502;26.526;2023-03-18T09:12:43;100284.38;;;12.83;48.10
20019;BME280;10170;42.502;26.526;2023-03-18T09:15:13;100292.16;;;11.91;47.24
20019;BME280;10170;42.502;26.526;2023-03-18T09:17:45;100295.22;;;12.55;46.97
20019;BME280;10170;42.502;26.526;2023-03-18T09:20:32;100290.91;;;12.54;46.65
20019;BME280;10170;42.502;26.526;2023-03-18T09:22:59;100286.44;;;12.74;46.71
20019;BME280;10170;42.502;26.526;2023-03-18T09:25:26;100289.31;;;12.99;47.87
20019;BME280;10170;42.502;26.526;2023-03-18T09:27:53;100283.34;;;12.77;48.61
20019;BME280;10170;42.502;26.526;2023-03-18T09:30:19;100274.66;;;14.11;45.90
20019;BME280;10170;42.502;26.526;2023-03-18T09:32:46;100264.03;;;12.75;46.54
20019;BME280;10170;42.502;26.526;2023-03-18T09:35:14;100276.78;;;13.38;48.63
20019;BME280;10170;42.502;26.526;2023-03-18T09:37:41;100271.22;;;13.40;46.32
20019;BME280;10170;42.502;26.526;2023-03-18T09:40:31;100275.53;;;13.02;46.11
20019;BME280;10170;42.502;26.526;2023-03-18T09:43:26;100274.31;;;12.71;46.06
20019;BME280;10170;42.502;26.526;2023-03-18T09:54:30;100282.50;;;13.48;47.32
20019;BME280;10170;42.502;26.526;2023-03-18T09:56:59;100272.66;;;13.49;45.24
20019;BME280;10170;42.502;26.526;2023-03-18T09:59:37;100278.75;;;13.69;46.05
20019;BME280;10170;42.502;26.526;2023-03-18T10:02:41;100277.59;;;13.39;47.18
20019;BME280;10170;42.502;26.526;2023-03-18T10:05:17;100255.16;;;13.53;47.18
20019;BME280;10170;42.502;26.526;2023-03-18T10:07:49;100265.22;;;13.64;44.25
20019;BME280;10170;42.502;26.526;2023-03-18T10:10:30;100249.22;;;13.51;45.98
20019;BME280;10170;42.502;26.526;2023-03-18T10:13:28;100257.03;;;13.46;45.47
20019;BME280;10170;42.502;26.526;2023-03-18T10:15:54;100265.00;;;13.59;44.91
20019;BME280;10170;42.502;26.526;2023-03-18T10:18:33;100265.63;;;14.12;45.47
20019;BME280;10170;42.502;26.526;2023-03-18T10:24:07;100244.34;;;13.15;46.67
20019;BME280;10170;42.502;26.526;2023-03-18T10:26:40;100247.91;;;14.17;45.14
20019;BME280;10170;42.502;26.526;2023-03-18T10:38:27;100240.22;;;13.90;46.24
20019;BME280;10170;42.502;26.526;2023-03-18T10:40:56;100245.63;;;14.21;45.12
20019;BME280;10170;42.502;26.526;2023-03-18T10:43:31;100235.75;;;14.21;45.95
20019;BME280;10170;42.502;26.526;2023-03-18T10:46:01;100227.75;;;14.15;45.15
20019;BME280;10170;42.502;26.526;2023-03-18T10:48:32;100235.81;;;13.57;45.65
20019;BME280;10170;42.502;26.526;2023-03-18T10:54:08;100210.78;;;13.45;45.08
20019;BME280;10170;42.502;26.526;2023-03-18T10:56:36;100226.63;;;13.34;45.93
20019;BME280;10170;42.502;26.526;2023-03-18T10:59:11;100224.81;;;13.02;47.50
20019;BME280;10170;42.502;26.526;2023-03-18T11:01:39;100204.16;;;13.67;45.68
20019;BME280;10170;42.502;26.526;2023-03-18T11:04:11;100213.13;;;13.16;43.73
20019;BME280;10170;42.502;26.526;2023-03-18T11:09:34;100198.97;;;13.66;45.19
20019;BME280;10170;42.502;26.526;2023-03-18T11:12:11;100191.03;;;13.46;45.71
20019;BME280;10170;42.502;26.526;2023-03-18T11:14:39;100197.63;;;13.50;45.34
20019;BME280;10170;42.502;26.526;2023-03-18T11:17:29;100201.09;;;13.57;44.69
20019;BME280;10170;42.502;26.526;2023-03-18T11:22:27;100199.41;;;14.07;44.47
20019;BME280;10170;42.502;26.526;2023-03-18T11:27:45;100189.47;;;13.83;45.82
20019;BME280;10170;42.502;26.526;2023-03-18T11:33:12;100192.69;;;13.92;43.58
20019;BME280;10170;42.502;26.526;2023-03-18T11:40:47;100178.19;;;14.43;43.45
20019;BME280;10170;42.502;26.526;2023-03-18T11:43:21;100180.38;;;13.91;44.80
20019;BME280;10170;42.502;26.526;2023-03-18T11:45:49;100182.22;;;13.90;45.54
20019;BME280;10170;42.502;26.526;2023-03-18T11:48:34;100166.00;;;14.72;44.31
20019;BME280;10170;42.502;26.526;2023-03-18T11:59:37;100158.91;;;14.59;43.94
20019;BME280;10170;42.502;26.526;2023-03-18T12:02:39;100163.34;;;14.72;44.17
20019;BME280;10170;42.502;26.526;2023-03-18T12:05:41;100158.34;;;15.36;42.84
20019;BME280;10170;42.502;26.526;2023-03-18T12:14:21;100160.69;;;14.47;42.44
20019;BME280;10170;42.502;26.526;2023-03-18T12:20:00;100159.59;;;14.24;43.18
20019;BME280;10170;42.502;26.526;2023-03-18T12:23:27;100166.13;;;14.34;43.21
20019;BME280;10170;42.502;26.526;2023-03-18T12:25:56;100155.53;;;14.70;43.06
20019;BME280;10170;42.502;26.526;2023-03-18T12:33:54;100163.50;;;14.52;43.30
20019;BME280;10170;42.502;26.526;2023-03-18T12:39:14;100152.63;;;14.23;42.51
20019;BME280;10170;42.502;26.526;2023-03-18T12:42:02;100146.22;;;13.55;43.09
20019;BME280;10170;42.502;26.526;2023-03-18T12:45:08;100153.47;;;13.48;43.44
20019;BME280;10170;42.502;26.526;2023-03-18T12:47:39;100147.00;;;13.11;43.42
20019;BME280;10170;42.502;26.526;2023-03-18T12:50:19;100152.38;;;12.72;44.22
20019;BME280;10170;42.502;26.526;2023-03-18T12:52:53;100118.75;;;12.45;45.05
20019;BME280;10170;42.502;26.526;2023-03-18T12:55:29;100139.22;;;12.90;44.84
20019;BME280;10170;42.502;26.526;2023-03-18T12:58:09;100154.22;;;13.04;44.95
20019;BME280;10170;42.502;26.526;2023-03-18T13:14:26;100140.22;;;14.77;41.45
20019;BME280;10170;42.502;26.526;2023-03-18T13:16:56;100124.06;;;14.41;42.16
20019;BME280;10170;42.502;26.526;2023-03-18T13:19:24;100137.41;;;14.72;41.73
20019;BME280;10170;42.502;26.526;2023-03-18T13:21:59;100133.84;;;14.78;41.82
20019;BME280;10170;42.502;26.526;2023-03-18T13:30:01;100128.38;;;15.46;41.86
20019;BME280;10170;42.502;26.526;2023-03-18T13:32:45;100131.34;;;15.02;42.71
20019;BME280;10170;42.502;26.526;2023-03-18T13:44:05;100106.38;;;13.85;43.19
20019;BME280;10170;42.502;26.526;2023-03-18T13:46:36;100119.03;;;13.64;44.56
20019;BME280;10170;42.502;26.526;2023-03-18T13:49:03;100120.66;;;13.72;44.30
20019;BME280;10170;42.502;26.526;2023-03-18T13:54:02;100120.41;;;13.36;45.32
20019;BME280;10170;42.502;26.526;2023-03-18T14:04:57;100115.19;;;13.10;46.40
20019;BME280;10170;42.502;26.526;2023-03-18T14:07:26;100096.38;;;12.59;46.81
20019;BME280;10170;42.502;26.526;2023-03-18T14:15:45;100128.38;;;12.65;47.51
20019;BME280;10170;42.502;26.526;2023-03-18T14:17:52;100119.16;;;12.35;46.91
20019;BME280;10170;42.502;26.526;2023-03-18T14:20:41;100114.44;;;12.50;47.14
20019;BME280;10170;42.502;26.526;2023-03-18T14:23:41;100109.53;;;12.41;48.69
20019;BME280;10170;42.502;26.526;2023-03-18T14:26:22;100119.56;;;12.58;48.19
20019;BME280;10170;42.502;26.526;2023-03-18T14:28:55;100113.78;;;12.74;48.97
20019;BME280;10170;42.502;26.526;2023-03-18T14:39:41;100113.44;;;12.38;47.18
20019;BME280;10170;42.502;26.526;2023-03-18T14:44:56;100110.75;;;12.51;45.97
20019;BME280;10170;42.502;26.526;2023-03-18T14:47:40;100115.47;;;12.23;47.64
20019;BME280;10170;42.502;26.526;2023-03-18T14:52:43;100116.09;;;12.06;48.66
20019;BME280;10170;42.502;26.526;2023-03-18T14:55:18;100106.41;;;11.85;48.77
20019;BME280;10170;42.502;26.526;2023-03-18T14:57:46;100120.81;;;11.97;48.91
20019;BME280;10170;42.502;26.526;2023-03-18T15:00:18;100124.06;;;11.86;49.10
20019;BME280;10170;42.502;26.526;2023-03-18T15:02:49;100119.72;;;11.85;48.32
20019;BME280;10170;42.502;26.526;2023-03-18T15:05:19;100116.28;;;11.98;48.48
20019;BME280;10170;42.502;26.526;2023-03-18T15:07:51;100115.88;;;12.07;48.60